sensor_id;sensor_type;location;lat;lon;timestamp;P1;durP1;ratioP1;P2;durP2;ratioP2
27539;SDS011;15906;52.046;4.724;2023-04-03T00:06:49;3.40;;;1.63;;
27539;SDS011;15906;52.046;4.724;2023-04-03T00:09:15;2.73;;;1.70;;
27539;SDS011;15906;52.046;4.724;2023-04-03T00:11:40;2.03;;;1.13;;
27539;SDS011;15906;52.046;4.724;2023-04-03T00:14:06;2.97;;;1.30;;
27539;SDS011;15906;52.046;4.724;2023-04-03T00:16:31;5.80;;;1.70;;
27539;SDS011;15906;52.046;4.724;2023-04-03T00:18:57;4.00;;;1.50;;
27539;SDS011;15906;52.046;4.724;2023-04-03T00:21:22;2.40;;;1.30;;
27539;SDS011;15906;52.046;4.724;2023-04-03T00:23:48;2.00;;;1.50;;
27539;SDS011;15906;52.046;4.724;2023-04-03T00:26:13;1.90;;;1.47;;
27539;SDS011;15906;52.046;4.724;2023-04-03T00:28:39;1.90;;;1.27;;
27539;SDS011;15906;52.046;4.724;2023-04-03T00:31:04;4.00;;;1.70;;
27539;SDS011;15906;52.046;4.724;2023-04-03T00:33:30;3.27;;;1.67;;
27539;SDS011;15906;52.046;4.724;2023-04-03T00:35:56;2.47;;;1.40;;
27539;SDS011;15906;52.046;4.724;2023-04-03T00:38:21;2.37;;;1.33;;
27539;SDS011;15906;52.046;4.724;2023-04-03T00:40:47;6.33;;;1.80;;
27539;SDS011;15906;52.046;4.724;2023-04-03T00:45:43;2.33;;;1.43;;
27539;SDS011;15906;52.046;4.724;2023-04-03T00:48:11;3.57;;;1.70;;
27539;SDS011;15906;52.046;4.724;2023-04-03T00:50:42;3.97;;;1.37;;
27539;SDS011;15906;52.046;4.724;2023-04-03T00:53:11;2.63;;;1.47;;
27539;SDS011;15906;52.046;4.724;2023-04-03T00:55:41;4.50;;;1.60;;
27539;SDS011;15906;52.046;4.724;2023-04-03T00:58:07;4.07;;;2.07;;
27539;SDS011;15906;52.046;4.724;2023-04-03T01:00:35;2.83;;;1.33;;
27539;SDS011;15906;52.046;4.724;2023-04-03T01:03:03;5.03;;;1.77;;
27539;SDS011;15906;52.046;4.724;2023-04-03T01:05:29;2.43;;;1.47;;
27539;SDS011;15906;52.046;4.724;2023-04-03T01:07:55;3.37;;;1.90;;
27539;SDS011;15906;52.046;4.724;2023-04-03T01:10:22;3.93;;;1.83;;
27539;SDS011;15906;52.046;4.724;2023-04-03T01:12:49;1.57;;;1.17;;
27539;SDS011;15906;52.046;4.724;2023-04-03T01:15:17;3.53;;;1.43;;
27539;SDS011;15906;52.046;4.724;2023-04-03T01:17:54;3.20;;;1.63;;
27539;SDS011;15906;52.046;4.724;2023-04-03T01:25:34;2.77;;;1.70;;
27539;SDS011;15906;52.046;4.724;2023-04-03T01:28:02;3.47;;;1.47;;
27539;SDS011;15906;52.046;4.724;2023-04-03T01:30:31;4.00;;;1.83;;
27539;SDS011;15906;52.046;4.724;2023-04-03T01:33:00;4.50;;;1.80;;
27539;SDS011;15906;52.046;4.724;2023-04-03T01:35:26;5.07;;;1.70;;
27539;SDS011;15906;52.046;4.724;2023-04-03T01:37:51;2.47;;;1.40;;
27539;SDS011;15906;52.046;4.724;2023-04-03T01:40:17;3.63;;;1.60;;
27539;SDS011;15906;52.046;4.724;2023-04-03T01:42:43;2.53;;;1.43;;
27539;SDS011;15906;52.046;4.724;2023-04-03T01:45:08;5.53;;;1.80;;
27539;SDS011;15906;52.046;4.724;2023-04-03T01:47:34;4.67;;;1.53;;
27539;SDS011;15906;52.046;4.724;2023-04-03T01:50:00;4.90;;;1.80;;
27539;SDS011;15906;52.046;4.724;2023-04-03T01:52:26;1.80;;;1.47;;
27539;SDS011;15906;52.046;4.724;2023-04-03T01:54:51;2.07;;;1.60;;
27539;SDS011;15906;52.046;4.724;2023-04-03T01:57:18;4.03;;;1.70;;
27539;SDS011;15906;52.046;4.724;2023-04-03T01:59:44;2.73;;;1.50;;
27539;SDS011;15906;52.046;4.724;2023-04-03T02:02:09;2.23;;;1.30;;
27539;SDS011;15906;52.046;4.724;2023-04-03T02:04:37;3.13;;;1.63;;
27539;SDS011;15906;52.046;4.724;2023-04-03T02:07:02;6.77;;;1.60;;
27539;SDS011;15906;52.046;4.724;2023-04-03T02:09:28;2.53;;;1.60;;
27539;SDS011;15906;52.046;4.724;2023-04-03T02:11:54;4.60;;;1.40;;
27539;SDS011;15906;52.046;4.724;2023-04-03T02:14:19;4.17;;;1.90;;
27539;SDS011;15906;52.046;4.724;2023-04-03T02:16:46;3.97;;;1.90;;
27539;SDS011;15906;52.046;4.724;2023-04-03T02:19:12;3.33;;;1.57;;
27539;SDS011;15906;52.046;4.724;2023-04-03T02:21:37;4.17;;;2.00;;
27539;SDS011;15906;52.046;4.724;2023-04-03T02:24:03;3.57;;;1.83;;
27539;SDS011;15906;52.046;4.724;2023-04-03T02:26:29;6.07;;;2.10;;
27539;SDS011;15906;52.046;4.724;2023-04-03T02:28:54;5.13;;;1.80;;
27539;SDS011;15906;52.046;4.724;2023-04-03T02:31:20;5.53;;;1.60;;
27539;SDS011;15906;52.046;4.724;2023-04-03T02:33:46;4.20;;;1.70;;
27539;SDS011;15906;52.046;4.724;2023-04-03T02:36:11;4.40;;;1.60;;
27539;SDS011;15906;52.046;4.724;2023-04-03T02:38:37;3.23;;;1.87;;
27539;SDS011;15906;52.046;4.724;2023-04-03T02:41:06;2.17;;;1.83;;
27539;SDS011;15906;52.046;4.724;2023-04-03T02:43:33;3.30;;;1.63;;
27539;SDS011;15906;52.046;4.724;2023-04-03T02:45:59;5.23;;;2.17;;
27539;SDS011;15906;52.046;4.724;2023-04-03T02:48:25;3.27;;;2.10;;
27539;SDS011;15906;52.046;4.724;2023-04-03T02:50:51;3.40;;;1.97;;
27539;SDS011;15906;52.046;4.724;2023-04-03T02:53:16;5.23;;;2.10;;
27539;SDS011;15906;52.046;4.724;2023-04-03T02:55:42;4.50;;;2.20;;
27539;SDS011;15906;52.046;4.724;2023-04-03T02:58:08;7.23;;;2.20;;
27539;SDS011;15906;52.046;4.724;2023-04-03T03:00:34;2.90;;;1.53;;
27539;SDS011;15906;52.046;4.724;2023-04-03T03:03:00;4.10;;;1.97;;
27539;SDS011;15906;52.046;4.724;2023-04-03T03:05:26;3.50;;;1.77;;
27539;SDS011;15906;52.046;4.724;2023-04-03T03:07:52;4.70;;;1.70;;
27539;SDS011;15906;52.046;4.724;2023-04-03T03:10:18;4.43;;;1.87;;
27539;SDS011;15906;52.046;4.724;2023-04-03T03:12:44;3.37;;;1.90;;
27539;SDS011;15906;52.046;4.724;2023-04-03T03:15:10;3.50;;;1.80;;
27539;SDS011;15906;52.046;4.724;2023-04-03T03:17:36;4.27;;;1.90;;
27539;SDS011;15906;52.046;4.724;2023-04-03T03:20:02;3.80;;;2.13;;
27539;SDS011;15906;52.046;4.724;2023-04-03T03:22:28;3.27;;;1.77;;
27539;SDS011;15906;52.046;4.724;2023-04-03T03:24:54;2.80;;;1.70;;
27539;SDS011;15906;52.046;4.724;2023-04-03T03:27:20;3.23;;;1.53;;
27539;SDS011;15906;52.046;4.724;2023-04-03T03:29:45;3.87;;;2.13;;
27539;SDS011;15906;52.046;4.724;2023-04-03T03:32:13;4.50;;;2.00;;
27539;SDS011;15906;52.046;4.724;2023-04-03T03:34:39;3.50;;;2.00;;
27539;SDS011;15906;52.046;4.724;2023-04-03T03:37:05;4.70;;;2.00;;
27539;SDS011;15906;52.046;4.724;2023-04-03T03:39:30;4.67;;;2.10;;
27539;SDS011;15906;52.046;4.724;2023-04-03T03:41:56;3.67;;;2.50;;
27539;SDS011;15906;52.046;4.724;2023-04-03T03:44:21;7.47;;;2.20;;
27539;SDS011;15906;52.046;4.724;2023-04-03T03:46:47;2.93;;;1.70;;
27539;SDS011;15906;52.046;4.724;2023-04-03T03:49:12;3.67;;;2.20;;
27539;SDS011;15906;52.046;4.724;2023-04-03T03:51:38;3.50;;;1.80;;
27539;SDS011;15906;52.046;4.724;2023-04-03T03:54:05;3.60;;;2.00;;
27539;SDS011;15906;52.046;4.724;2023-04-03T03:56:31;3.23;;;1.70;;
27539;SDS011;15906;52.046;4.724;2023-04-03T03:58:57;4.37;;;2.30;;
27539;SDS011;15906;52.046;4.724;2023-04-03T04:01:23;3.23;;;1.97;;
27539;SDS011;15906;52.046;4.724;2023-04-03T04:03:49;7.47;;;2.10;;
27539;SDS011;15906;52.046;4.724;2023-04-03T04:06:15;2.80;;;1.80;;
27539;SDS011;15906;52.046;4.724;2023-04-03T04:08:41;3.00;;;1.83;;
27539;SDS011;15906;52.046;4.724;2023-04-03T04:11:07;3.70;;;2.00;;
27539;SDS011;15906;52.046;4.724;2023-04-03T04:13:33;4.13;;;2.20;;
27539;SDS011;15906;52.046;4.724;2023-04-03T04:15:59;5.00;;;1.97;;
27539;SDS011;15906;52.046;4.724;2023-04-03T04:18:25;2.87;;;1.90;;
27539;SDS011;15906;52.046;4.724;2023-04-03T04:20:50;2.97;;;2.03;;
27539;SDS011;15906;52.046;4.724;2023-04-03T04:23:17;3.43;;;2.20;;
27539;SDS011;15906;52.046;4.724;2023-04-03T04:25:46;3.53;;;2.00;;
27539;SDS011;15906;52.046;4.724;2023-04-03T04:28:13;4.23;;;2.10;;
27539;SDS011;15906;52.046;4.724;2023-04-03T04:30:39;3.60;;;2.20;;
27539;SDS011;15906;52.046;4.724;2023-04-03T04:33:05;6.40;;;2.20;;
27539;SDS011;15906;52.046;4.724;2023-04-03T04:35:30;2.83;;;2.27;;
27539;SDS011;15906;52.046;4.724;2023-04-03T04:37:56;5.17;;;2.20;;
27539;SDS011;15906;52.046;4.724;2023-04-03T04:40:21;6.07;;;2.50;;
27539;SDS011;15906;52.046;4.724;2023-04-03T04:42:47;3.93;;;2.30;;
27539;SDS011;15906;52.046;4.724;2023-04-03T04:45:12;4.53;;;2.10;;
27539;SDS011;15906;52.046;4.724;2023-04-03T04:47:39;4.27;;;2.20;;
27539;SDS011;15906;52.046;4.724;2023-04-03T04:50:05;4.17;;;2.17;;
27539;SDS011;15906;52.046;4.724;2023-04-03T04:52:31;3.60;;;2.27;;
27539;SDS011;15906;52.046;4.724;2023-04-03T04:54:57;6.70;;;2.10;;
27539;SDS011;15906;52.046;4.724;2023-04-03T04:57:22;4.23;;;2.07;;
27539;SDS011;15906;52.046;4.724;2023-04-03T04:59:48;6.77;;;2.50;;
27539;SDS011;15906;52.046;4.724;2023-04-03T05:02:13;3.43;;;2.40;;
27539;SDS011;15906;52.046;4.724;2023-04-03T05:04:39;4.83;;;2.33;;
27539;SDS011;15906;52.046;4.724;2023-04-03T05:07:05;3.80;;;2.33;;
27539;SDS011;15906;52.046;4.724;2023-04-03T05:09:30;7.43;;;2.57;;
27539;SDS011;15906;52.046;4.724;2023-04-03T05:11:56;2.93;;;2.20;;
27539;SDS011;15906;52.046;4.724;2023-04-03T05:14:21;8.20;;;2.43;;
27539;SDS011;15906;52.046;4.724;2023-04-03T05:16:47;5.53;;;2.27;;
27539;SDS011;15906;52.046;4.724;2023-04-03T05:19:15;3.67;;;2.13;;
27539;SDS011;15906;52.046;4.724;2023-04-03T05:21:40;5.50;;;2.80;;
27539;SDS011;15906;52.046;4.724;2023-04-03T05:24:06;7.63;;;2.73;;
27539;SDS011;15906;52.046;4.724;2023-04-03T05:26:34;3.40;;;2.20;;
27539;SDS011;15906;52.046;4.724;2023-04-03T05:29:00;5.93;;;2.47;;
27539;SDS011;15906;52.046;4.724;2023-04-03T05:31:26;6.50;;;2.70;;
27539;SDS011;15906;52.046;4.724;2023-04-03T05:33:54;8.07;;;3.33;;
27539;SDS011;15906;52.046;4.724;2023-04-03T05:36:19;7.30;;;2.80;;
27539;SDS011;15906;52.046;4.724;2023-04-03T05:38:48;5.30;;;3.17;;
27539;SDS011;15906;52.046;4.724;2023-04-03T05:41:14;5.07;;;3.37;;
27539;SDS011;15906;52.046;4.724;2023-04-03T05:43:40;8.63;;;2.77;;
27539;SDS011;15906;52.046;4.724;2023-04-03T05:46:09;5.63;;;3.23;;
27539;SDS011;15906;52.046;4.724;2023-04-03T05:48:39;8.90;;;4.10;;
27539;SDS011;15906;52.046;4.724;2023-04-03T05:51:05;4.47;;;2.60;;
27539;SDS011;15906;52.046;4.724;2023-04-03T05:53:33;7.17;;;3.10;;
27539;SDS011;15906;52.046;4.724;2023-04-03T05:56:02;4.63;;;2.50;;
27539;SDS011;15906;52.046;4.724;2023-04-03T05:58:28;8.77;;;3.07;;
27539;SDS011;15906;52.046;4.724;2023-04-03T06:00:53;7.57;;;2.90;;
27539;SDS011;15906;52.046;4.724;2023-04-03T06:03:19;9.73;;;3.17;;
27539;SDS011;15906;52.046;4.724;2023-04-03T06:05:44;8.90;;;3.40;;
27539;SDS011;15906;52.046;4.724;2023-04-03T06:08:11;7.93;;;2.93;;
27539;SDS011;15906;52.046;4.724;2023-04-03T06:10:37;7.83;;;3.37;;
27539;SDS011;15906;52.046;4.724;2023-04-03T06:13:03;4.77;;;2.83;;
27539;SDS011;15906;52.046;4.724;2023-04-03T06:15:29;6.53;;;3.00;;
27539;SDS011;15906;52.046;4.724;2023-04-03T06:17:55;4.77;;;2.90;;
27539;SDS011;15906;52.046;4.724;2023-04-03T06:20:21;5.57;;;3.10;;
27539;SDS011;15906;52.046;4.724;2023-04-03T06:22:47;7.13;;;3.00;;
27539;SDS011;15906;52.046;4.724;2023-04-03T06:25:12;11.27;;;2.87;;
27539;SDS011;15906;52.046;4.724;2023-04-03T06:27:38;8.50;;;3.20;;
27539;SDS011;15906;52.046;4.724;2023-04-03T06:30:05;11.47;;;3.47;;
27539;SDS011;15906;52.046;4.724;2023-04-03T06:32:31;6.43;;;3.33;;
27539;SDS011;15906;52.046;4.724;2023-04-03T06:34:57;6.07;;;2.73;;
27539;SDS011;15906;52.046;4.724;2023-04-03T06:37:23;4.93;;;2.97;;
27539;SDS011;15906;52.046;4.724;2023-04-03T06:39:53;11.33;;;3.20;;
27539;SDS011;15906;52.046;4.724;2023-04-03T06:42:20;5.33;;;3.07;;
27539;SDS011;15906;52.046;4.724;2023-04-03T06:44:46;10.03;;;3.00;;
27539;SDS011;15906;52.046;4.724;2023-04-03T06:47:15;6.73;;;3.50;;
27539;SDS011;15906;52.046;4.724;2023-04-03T06:49:41;6.00;;;3.17;;
27539;SDS011;15906;52.046;4.724;2023-04-03T06:52:07;9.47;;;3.93;;
27539;SDS011;15906;52.046;4.724;2023-04-03T06:54:33;10.50;;;3.53;;
27539;SDS011;15906;52.046;4.724;2023-04-03T06:56:59;7.57;;;3.80;;
27539;SDS011;15906;52.046;4.724;2023-04-03T06:59:25;9.53;;;3.47;;
27539;SDS011;15906;52.046;4.724;2023-04-03T07:01:50;7.77;;;3.40;;
27539;SDS011;15906;52.046;4.724;2023-04-03T07:04:16;6.87;;;3.13;;
27539;SDS011;15906;52.046;4.724;2023-04-03T07:06:42;13.20;;;3.53;;
27539;SDS011;15906;52.046;4.724;2023-04-03T07:09:08;9.13;;;2.97;;
27539;SDS011;15906;52.046;4.724;2023-04-03T07:11:35;6.37;;;2.57;;
27539;SDS011;15906;52.046;4.724;2023-04-03T07:14:01;8.33;;;2.80;;
27539;SDS011;15906;52.046;4.724;2023-04-03T07:16:27;6.03;;;2.57;;
27539;SDS011;15906;52.046;4.724;2023-04-03T07:18:55;8.27;;;2.80;;
27539;SDS011;15906;52.046;4.724;2023-04-03T07:21:22;9.00;;;3.10;;
27539;SDS011;15906;52.046;4.724;2023-04-03T07:23:48;5.77;;;2.27;;
27539;SDS011;15906;52.046;4.724;2023-04-03T07:26:14;5.20;;;2.13;;
27539;SDS011;15906;52.046;4.724;2023-04-03T07:28:40;4.60;;;2.00;;
27539;SDS011;15906;52.046;4.724;2023-04-03T07:31:07;4.13;;;2.10;;
27539;SDS011;15906;52.046;4.724;2023-04-03T07:33:38;3.77;;;2.17;;
27539;SDS011;15906;52.046;4.724;2023-04-03T07:36:05;6.27;;;2.30;;
27539;SDS011;15906;52.046;4.724;2023-04-03T07:38:32;7.30;;;2.70;;
27539;SDS011;15906;52.046;4.724;2023-04-03T07:40:58;7.55;;;2.28;;
27539;SDS011;15906;52.046;4.724;2023-04-03T07:43:23;5.68;;;2.00;;
27539;SDS011;15906;52.046;4.724;2023-04-03T07:45:52;6.10;;;2.22;;
27539;SDS011;15906;52.046;4.724;2023-04-03T07:48:20;4.70;;;2.25;;
27539;SDS011;15906;52.046;4.724;2023-04-03T07:50:46;5.67;;;2.37;;
27539;SDS011;15906;52.046;4.724;2023-04-03T07:53:12;11.20;;;2.45;;
27539;SDS011;15906;52.046;4.724;2023-04-03T07:55:38;3.80;;;2.33;;
27539;SDS011;15906;52.046;4.724;2023-04-03T07:58:10;4.53;;;2.10;;
27539;SDS011;15906;52.046;4.724;2023-04-03T08:00:36;3.90;;;1.85;;
27539;SDS011;15906;52.046;4.724;2023-04-03T08:03:02;4.57;;;2.08;;
27539;SDS011;15906;52.046;4.724;2023-04-03T08:05:28;5.57;;;2.13;;
27539;SDS011;15906;52.046;4.724;2023-04-03T08:07:54;7.35;;;1.90;;
27539;SDS011;15906;52.046;4.724;2023-04-03T08:10:19;6.00;;;1.92;;
27539;SDS011;15906;52.046;4.724;2023-04-03T08:12:46;10.38;;;2.38;;
27539;SDS011;15906;52.046;4.724;2023-04-03T08:15:12;6.68;;;2.35;;
27539;SDS011;15906;52.046;4.724;2023-04-03T08:17:39;4.85;;;2.00;;
27539;SDS011;15906;52.046;4.724;2023-04-03T08:20:05;5.63;;;2.33;;
27539;SDS011;15906;52.046;4.724;2023-04-03T08:22:33;5.57;;;1.83;;
27539;SDS011;15906;52.046;4.724;2023-04-03T08:24:59;3.38;;;2.10;;
27539;SDS011;15906;52.046;4.724;2023-04-03T08:27:25;5.47;;;1.90;;
27539;SDS011;15906;52.046;4.724;2023-04-03T08:29:51;4.65;;;2.40;;
27539;SDS011;15906;52.046;4.724;2023-04-03T08:32:17;5.47;;;2.17;;
27539;SDS011;15906;52.046;4.724;2023-04-03T08:34:43;6.07;;;1.90;;
27539;SDS011;15906;52.046;4.724;2023-04-03T08:37:08;6.65;;;1.80;;
27539;SDS011;15906;52.046;4.724;2023-04-03T08:39:34;3.30;;;1.63;;
27539;SDS011;15906;52.046;4.724;2023-04-03T08:42:02;6.22;;;1.80;;
27539;SDS011;15906;52.046;4.724;2023-04-03T08:50:19;4.63;;;1.98;;
27539;SDS011;15906;52.046;4.724;2023-04-03T08:52:51;4.13;;;1.30;;
27539;SDS011;15906;52.046;4.724;2023-04-03T08:57:48;5.18;;;1.50;;
27539;SDS011;15906;52.046;4.724;2023-04-03T09:00:24;2.17;;;1.50;;
27539;SDS011;15906;52.046;4.724;2023-04-03T09:02:54;4.75;;;1.67;;
27539;SDS011;15906;52.046;4.724;2023-04-03T09:05:31;7.88;;;1.67;;
27539;SDS011;15906;52.046;4.724;2023-04-03T09:08:29;9.77;;;1.73;;
27539;SDS011;15906;52.046;4.724;2023-04-03T09:13:57;3.60;;;1.33;;
27539;SDS011;15906;52.046;4.724;2023-04-03T09:19:11;2.58;;;1.15;;
27539;SDS011;15906;52.046;4.724;2023-04-03T09:21:44;1.95;;;0.98;;
27539;SDS011;15906;52.046;4.724;2023-04-03T09:24:10;2.35;;;1.05;;
27539;SDS011;15906;52.046;4.724;2023-04-03T09:29:27;6.43;;;1.20;;
27539;SDS011;15906;52.046;4.724;2023-04-03T09:31:56;2.28;;;1.00;;
27539;SDS011;15906;52.046;4.724;2023-04-03T09:34:28;2.75;;;1.10;;
27539;SDS011;15906;52.046;4.724;2023-04-03T09:37:02;2.63;;;1.17;;
27539;SDS011;15906;52.046;4.724;2023-04-03T09:39:31;1.58;;;0.90;;
27539;SDS011;15906;52.046;4.724;2023-04-03T09:42:19;1.40;;;0.68;;
27539;SDS011;15906;52.046;4.724;2023-04-03T09:44:54;1.75;;;0.82;;
27539;SDS011;15906;52.046;4.724;2023-04-03T09:47:26;2.60;;;0.95;;
27539;SDS011;15906;52.046;4.724;2023-04-03T09:52:47;4.13;;;1.30;;
27539;SDS011;15906;52.046;4.724;2023-04-03T09:55:18;4.65;;;1.00;;
27539;SDS011;15906;52.046;4.724;2023-04-03T09:57:52;1.77;;;1.20;;
27539;SDS011;15906;52.046;4.724;2023-04-03T10:00:21;1.83;;;0.80;;
27539;SDS011;15906;52.046;4.724;2023-04-03T10:02:56;2.45;;;0.90;;
27539;SDS011;15906;52.046;4.724;2023-04-03T10:05:40;2.28;;;0.80;;
27539;SDS011;15906;52.046;4.724;2023-04-03T10:08:07;3.28;;;1.10;;
27539;SDS011;15906;52.046;4.724;2023-04-03T10:10:40;2.83;;;1.00;;
27539;SDS011;15906;52.046;4.724;2023-04-03T10:13:09;2.25;;;1.00;;
27539;SDS011;15906;52.046;4.724;2023-04-03T10:15:41;5.78;;;1.15;;
27539;SDS011;15906;52.046;4.724;2023-04-03T10:18:24;1.85;;;0.98;;
27539;SDS011;15906;52.046;4.724;2023-04-03T10:20:57;5.05;;;1.10;;
27539;SDS011;15906;52.046;4.724;2023-04-03T10:23:42;2.53;;;1.10;;
27539;SDS011;15906;52.046;4.724;2023-04-03T10:26:16;2.63;;;1.10;;
27539;SDS011;15906;52.046;4.724;2023-04-03T10:31:36;2.63;;;0.85;;
27539;SDS011;15906;52.046;4.724;2023-04-03T10:50:15;1.65;;;0.82;;
27539;SDS011;15906;52.046;4.724;2023-04-03T10:55:37;1.25;;;0.73;;
27539;SDS011;15906;52.046;4.724;2023-04-03T10:58:17;1.60;;;0.80;;
27539;SDS011;15906;52.046;4.724;2023-04-03T11:01:05;1.33;;;0.70;;
27539;SDS011;15906;52.046;4.724;2023-04-03T11:03:38;1.13;;;0.80;;
27539;SDS011;15906;52.046;4.724;2023-04-03T11:06:10;1.85;;;0.80;;
27539;SDS011;15906;52.046;4.724;2023-04-03T11:11:44;3.45;;;0.80;;
27539;SDS011;15906;52.046;4.724;2023-04-03T11:17:04;2.85;;;0.70;;
27539;SDS011;15906;52.046;4.724;2023-04-03T11:19:50;1.50;;;0.70;;
27539;SDS011;15906;52.046;4.724;2023-04-03T11:22:27;5.15;;;0.80;;
27539;SDS011;15906;52.046;4.724;2023-04-03T11:25:22;2.70;;;0.80;;
27539;SDS011;15906;52.046;4.724;2023-04-03T11:36:09;0.80;;;0.60;;
27539;SDS011;15906;52.046;4.724;2023-04-03T11:38:41;2.42;;;0.60;;
27539;SDS011;15906;52.046;4.724;2023-04-03T11:41:09;0.70;;;0.60;;
27539;SDS011;15906;52.046;4.724;2023-04-03T11:46:21;1.30;;;0.50;;
27539;SDS011;15906;52.046;4.724;2023-04-03T11:48:49;2.10;;;0.70;;
27539;SDS011;15906;52.046;4.724;2023-04-03T11:53:53;1.30;;;0.50;;
27539;SDS011;15906;52.046;4.724;2023-04-03T12:04:14;1.85;;;0.60;;
27539;SDS011;15906;52.046;4.724;2023-04-03T12:06:53;1.38;;;0.50;;
27539;SDS011;15906;52.046;4.724;2023-04-03T12:17:47;2.25;;;0.60;;
27539;SDS011;15906;52.046;4.724;2023-04-03T12:25:49;1.65;;;0.70;;
27539;SDS011;15906;52.046;4.724;2023-04-03T12:28:15;1.45;;;0.95;;
27539;SDS011;15906;52.046;4.724;2023-04-03T12:30:41;2.42;;;0.85;;
27539;SDS011;15906;52.046;4.724;2023-04-03T12:33:18;1.40;;;0.80;;
27539;SDS011;15906;52.046;4.724;2023-04-03T12:35:57;0.95;;;0.80;;
27539;SDS011;15906;52.046;4.724;2023-04-03T12:41:38;1.30;;;0.80;;
27539;SDS011;15906;52.046;4.724;2023-04-03T12:44:17;2.75;;;0.82;;
27539;SDS011;15906;52.046;4.724;2023-04-03T12:46:49;1.88;;;0.85;;
27539;SDS011;15906;52.046;4.724;2023-04-03T12:51:55;3.35;;;1.08;;
27539;SDS011;15906;52.046;4.724;2023-04-03T12:54:30;5.28;;;1.20;;
27539;SDS011;15906;52.046;4.724;2023-04-03T12:57:12;3.38;;;1.00;;
27539;SDS011;15906;52.046;4.724;2023-04-03T12:59:41;1.75;;;1.02;;
27539;SDS011;15906;52.046;4.724;2023-04-03T13:02:32;2.05;;;0.95;;
27539;SDS011;15906;52.046;4.724;2023-04-03T13:04:59;3.17;;;1.00;;
27539;SDS011;15906;52.046;4.724;2023-04-03T13:07:34;1.95;;;1.02;;
27539;SDS011;15906;52.046;4.724;2023-04-03T13:12:32;1.70;;;1.10;;
27539;SDS011;15906;52.046;4.724;2023-04-03T13:15:01;1.88;;;1.08;;
27539;SDS011;15906;52.046;4.724;2023-04-03T13:17:38;2.08;;;0.98;;
27539;SDS011;15906;52.046;4.724;2023-04-03T13:20:12;3.88;;;1.00;;
27539;SDS011;15906;52.046;4.724;2023-04-03T13:23:05;3.42;;;1.08;;
27539;SDS011;15906;52.046;4.724;2023-04-03T13:25:34;2.35;;;0.85;;
27539;SDS011;15906;52.046;4.724;2023-04-03T13:28:05;3.67;;;1.10;;
27539;SDS011;15906;52.046;4.724;2023-04-03T13:30:36;3.47;;;1.20;;
27539;SDS011;15906;52.046;4.724;2023-04-03T13:33:04;3.85;;;1.10;;
27539;SDS011;15906;52.046;4.724;2023-04-03T13:35:38;3.08;;;1.10;;
27539;SDS011;15906;52.046;4.724;2023-04-03T13:40:47;1.88;;;0.95;;
27539;SDS011;15906;52.046;4.724;2023-04-03T13:43:23;1.40;;;0.98;;
27539;SDS011;15906;52.046;4.724;2023-04-03T13:46:01;3.42;;;1.00;;
27539;SDS011;15906;52.046;4.724;2023-04-03T13:48:39;2.53;;;0.80;;
27539;SDS011;15906;52.046;4.724;2023-04-03T13:53:42;1.67;;;0.90;;
27539;SDS011;15906;52.046;4.724;2023-04-03T13:56:26;1.55;;;0.90;;
27539;SDS011;15906;52.046;4.724;2023-04-03T13:58:56;3.88;;;0.80;;
27539;SDS011;15906;52.046;4.724;2023-04-03T14:01:41;3.60;;;1.83;;
27539;SDS011;15906;52.046;4.724;2023-04-03T14:04:11;1.75;;;1.00;;
27539;SDS011;15906;52.046;4.724;2023-04-03T14:06:37;2.30;;;1.00;;
27539;SDS011;15906;52.046;4.724;2023-04-03T14:09:02;2.42;;;1.10;;
27539;SDS011;15906;52.046;4.724;2023-04-03T14:11:29;8.10;;;1.00;;
27539;SDS011;15906;52.046;4.724;2023-04-03T14:13:56;1.50;;;1.10;;
27539;SDS011;15906;52.046;4.724;2023-04-03T14:16:26;1.30;;;0.90;;
27539;SDS011;15906;52.046;4.724;2023-04-03T14:18:54;1.65;;;0.90;;
27539;SDS011;15906;52.046;4.724;2023-04-03T14:21:20;1.95;;;1.45;;
27539;SDS011;15906;52.046;4.724;2023-04-03T14:23:46;2.78;;;0.98;;
27539;SDS011;15906;52.046;4.724;2023-04-03T14:26:20;5.13;;;1.30;;
27539;SDS011;15906;52.046;4.724;2023-04-03T14:28:49;1.45;;;0.88;;
27539;SDS011;15906;52.046;4.724;2023-04-03T14:31:17;3.05;;;1.05;;
27539;SDS011;15906;52.046;4.724;2023-04-03T14:33:44;2.85;;;1.10;;
27539;SDS011;15906;52.046;4.724;2023-04-03T14:36:20;1.67;;;0.93;;
27539;SDS011;15906;52.046;4.724;2023-04-03T14:38:50;1.67;;;1.02;;
27539;SDS011;15906;52.046;4.724;2023-04-03T14:41:17;1.95;;;0.93;;
27539;SDS011;15906;52.046;4.724;2023-04-03T14:43:46;1.85;;;1.08;;
27539;SDS011;15906;52.046;4.724;2023-04-03T14:46:13;1.80;;;1.17;;
27539;SDS011;15906;52.046;4.724;2023-04-03T14:48:40;2.13;;;1.00;;
27539;SDS011;15906;52.046;4.724;2023-04-03T14:51:06;1.85;;;1.02;;
27539;SDS011;15906;52.046;4.724;2023-04-03T14:53:32;2.03;;;1.10;;
27539;SDS011;15906;52.046;4.724;2023-04-03T14:55:57;1.95;;;1.10;;
27539;SDS011;15906;52.046;4.724;2023-04-03T14:58:23;7.70;;;1.27;;
27539;SDS011;15906;52.046;4.724;2023-04-03T15:00:49;2.08;;;1.42;;
27539;SDS011;15906;52.046;4.724;2023-04-03T15:03:15;2.53;;;1.17;;
27539;SDS011;15906;52.046;4.724;2023-04-03T15:05:43;4.88;;;1.40;;
27539;SDS011;15906;52.046;4.724;2023-04-03T15:08:28;2.22;;;1.02;;
27539;SDS011;15906;52.046;4.724;2023-04-03T15:10:55;4.18;;;1.20;;
27539;SDS011;15906;52.046;4.724;2023-04-03T15:13:21;4.95;;;1.23;;
27539;SDS011;15906;52.046;4.724;2023-04-03T15:15:48;3.38;;;1.20;;
27539;SDS011;15906;52.046;4.724;2023-04-03T15:18:27;5.32;;;1.30;;
27539;SDS011;15906;52.046;4.724;2023-04-03T15:20:55;1.38;;;1.17;;
27539;SDS011;15906;52.046;4.724;2023-04-03T15:23:21;2.83;;;1.00;;
27539;SDS011;15906;52.046;4.724;2023-04-03T15:25:51;1.40;;;1.13;;
27539;SDS011;15906;52.046;4.724;2023-04-03T15:28:19;3.10;;;1.33;;
27539;SDS011;15906;52.046;4.724;2023-04-03T15:30:53;2.10;;;1.30;;
27539;SDS011;15906;52.046;4.724;2023-04-03T15:33:19;2.38;;;1.30;;
27539;SDS011;15906;52.046;4.724;2023-04-03T15:35:45;2.55;;;1.23;;
27539;SDS011;15906;52.046;4.724;2023-04-03T15:38:11;2.63;;;1.45;;
27539;SDS011;15906;52.046;4.724;2023-04-03T15:40:37;4.50;;;1.33;;
27539;SDS011;15906;52.046;4.724;2023-04-03T15:43:03;3.60;;;1.50;;
27539;SDS011;15906;52.046;4.724;2023-04-03T15:45:29;3.50;;;1.55;;
27539;SDS011;15906;52.046;4.724;2023-04-03T15:47:56;4.43;;;1.10;;
27539;SDS011;15906;52.046;4.724;2023-04-03T15:50:22;2.83;;;1.30;;
27539;SDS011;15906;52.046;4.724;2023-04-03T15:52:49;5.18;;;1.20;;
27539;SDS011;15906;52.046;4.724;2023-04-03T15:55:20;3.05;;;1.05;;
27539;SDS011;15906;52.046;4.724;2023-04-03T15:57:50;1.60;;;1.02;;
27539;SDS011;15906;52.046;4.724;2023-04-03T16:00:16;1.73;;;1.00;;
27539;SDS011;15906;52.046;4.724;2023-04-03T16:02:42;3.45;;;1.33;;
27539;SDS011;15906;52.046;4.724;2023-04-03T16:05:09;2.42;;;1.33;;
27539;SDS011;15906;52.046;4.724;2023-04-03T16:07:39;1.52;;;1.10;;
27539;SDS011;15906;52.046;4.724;2023-04-03T16:10:06;2.65;;;1.00;;
27539;SDS011;15906;52.046;4.724;2023-04-03T16:12:32;3.10;;;1.42;;
27539;SDS011;15906;52.046;4.724;2023-04-03T16:14:58;1.75;;;1.02;;
27539;SDS011;15906;52.046;4.724;2023-04-03T16:17:24;3.38;;;1.20;;
27539;SDS011;15906;52.046;4.724;2023-04-03T16:19:51;1.73;;;1.20;;
27539;SDS011;15906;52.046;4.724;2023-04-03T16:22:17;3.38;;;1.63;;
27539;SDS011;15906;52.046;4.724;2023-04-03T16:24:42;3.28;;;1.20;;
27539;SDS011;15906;52.046;4.724;2023-04-03T16:27:08;6.30;;;1.45;;
27539;SDS011;15906;52.046;4.724;2023-04-03T16:29:33;2.80;;;1.40;;
27539;SDS011;15906;52.046;4.724;2023-04-03T16:31:59;2.67;;;1.10;;
27539;SDS011;15906;52.046;4.724;2023-04-03T16:34:25;3.15;;;1.50;;
27539;SDS011;15906;52.046;4.724;2023-04-03T16:36:51;5.07;;;1.85;;
27539;SDS011;15906;52.046;4.724;2023-04-03T16:39:17;3.92;;;1.40;;
27539;SDS011;15906;52.046;4.724;2023-04-03T16:41:43;2.17;;;1.30;;
27539;SDS011;15906;52.046;4.724;2023-04-03T16:44:10;2.28;;;1.20;;